sensor_id;sensor_type;location;lat;lon;timestamp;temperature;humidity
4615;DHT22;2320;51.362;6.946;2023-08-24T00:01:53;16.50;99.90
4615;DHT22;2320;51.362;6.946;2023-08-24T00:04:18;16.40;99.90
4615;DHT22;2320;51.362;6.946;2023-08-24T00:06:44;16.40;99.90
4615;DHT22;2320;51.362;6.946;2023-08-24T00:09:09;16.40;99.90
4615;DHT22;2320;51.362;6.946;2023-08-24T00:11:35;16.50;99.90
4615;DHT22;2320;51.362;6.946;2023-08-24T00:14:00;16.50;99.90
4615;DHT22;2320;51.362;6.946;2023-08-24T00:16:26;16.50;99.90
4615;DHT22;2320;51.362;6.946;2023-08-24T00:18:51;16.50;99.90
4615;DHT22;2320;51.362;6.946;2023-08-24T00:21:17;16.50;99.90
4615;DHT22;2320;51.362;6.946;2023-08-24T00:23:44;16.50;99.90
4615;DHT22;2320;51.362;6.946;2023-08-24T00:26:10;16.50;99.90
4615;DHT22;2320;51.362;6.946;2023-08-24T00:28:35;16.60;99.90
4615;DHT22;2320;51.362;6.946;2023-08-24T00:31:00;16.50;99.90
4615;DHT22;2320;51.362;6.946;2023-08-24T00:33:26;16.60;99.90
4615;DHT22;2320;51.362;6.946;2023-08-24T00:35:51;16.60;99.90
4615;DHT22;2320;51.362;6.946;2023-08-24T00:38:17;16.50;99.90
4615;DHT22;2320;51.362;6.946;2023-08-24T00:40:42;16.40;99.90
4615;DHT22;2320;51.362;6.946;2023-08-24T00:43:09;16.50;99.90
4615;DHT22;2320;51.362;6.946;2023-08-24T00:45:34;16.50;99.90
4615;DHT22;2320;51.362;6.946;2023-08-24T00:48:00;16.60;99.90
4615;DHT22;2320;51.362;6.946;2023-08-24T00:50:26;16.50;99.90
4615;DHT22;2320;51.362;6.946;2023-08-24T00:52:52;16.50;99.90
4615;DHT22;2320;51.362;6.946;2023-08-24T00:55:18;16.50;99.90
4615;DHT22;2320;51.362;6.946;2023-08-24T00:57:43;16.50;99.90
4615;DHT22;2320;51.362;6.946;2023-08-24T01:00:10;16.60;99.90
4615;DHT22;2320;51.362;6.946;2023-08-24T01:02:36;16.60;99.90
4615;DHT22;2320;51.362;6.946;2023-08-24T01:05:01;16.70;99.90
4615;DHT22;2320;51.362;6.946;2023-08-24T01:07:29;16.60;99.90
4615;DHT22;2320;51.362;6.946;2023-08-24T01:09:55;16.50;99.90
4615;DHT22;2320;51.362;6.946;2023-08-24T01:12:26;16.30;99.90
4615;DHT22;2320;51.362;6.946;2023-08-24T01:17:22;16.20;99.90
4615;DHT22;2320;51.362;6.946;2023-08-24T01:19:48;16.10;99.90
4615;DHT22;2320;51.362;6.946;2023-08-24T01:22:25;16.00;99.90
4615;DHT22;2320;51.362;6.946;2023-08-24T01:27:40;16.10;99.90
4615;DHT22;2320;51.362;6.946;2023-08-24T01:30:06;16.40;99.90
4615;DHT22;2320;51.362;6.946;2023-08-24T01:32:33;16.30;99.90
4615;DHT22;2320;51.362;6.946;2023-08-24T01:34:59;16.20;99.90
4615;DHT22;2320;51.362;6.946;2023-08-24T01:37:25;16.20;99.90
4615;DHT22;2320;51.362;6.946;2023-08-24T01:39:56;16.10;99.90
4615;DHT22;2320;51.362;6.946;2023-08-24T01:42:25;16.00;99.90
4615;DHT22;2320;51.362;6.946;2023-08-24T01:44:55;16.00;99.90
4615;DHT22;2320;51.362;6.946;2023-08-24T01:47:21;15.90;99.90
4615;DHT22;2320;51.362;6.946;2023-08-24T01:49:47;15.90;99.90
4615;DHT22;2320;51.362;6.946;2023-08-24T01:52:13;15.90;99.90
4615;DHT22;2320;51.362;6.946;2023-08-24T01:54:39;16.00;99.90
4615;DHT22;2320;51.362;6.946;2023-08-24T01:57:04;16.00;99.90
4615;DHT22;2320;51.362;6.946;2023-08-24T01:59:31;15.90;99.90
4615;DHT22;2320;51.362;6.946;2023-08-24T02:01:56;15.90;99.90
4615;DHT22;2320;51.362;6.946;2023-08-24T02:04:22;15.80;99.90
4615;DHT22;2320;51.362;6.946;2023-08-24T02:06:48;15.90;99.90
4615;DHT22;2320;51.362;6.946;2023-08-24T02:09:13;15.90;99.90
4615;DHT22;2320;51.362;6.946;2023-08-24T02:11:39;15.80;99.90
4615;DHT22;2320;51.362;6.946;2023-08-24T02:14:04;15.90;99.90
4615;DHT22;2320;51.362;6.946;2023-08-24T02:16:29;15.80;99.90
4615;DHT22;2320;51.362;6.946;2023-08-24T02:18:55;15.80;99.90
4615;DHT22;2320;51.362;6.946;2023-08-24T02:21:21;15.80;99.90
4615;DHT22;2320;51.362;6.946;2023-08-24T02:23:46;15.90;99.90
4615;DHT22;2320;51.362;6.946;2023-08-24T02:26:12;15.70;99.90
4615;DHT22;2320;51.362;6.946;2023-08-24T02:28:37;15.60;99.90
4615;DHT22;2320;51.362;6.946;2023-08-24T02:31:03;15.70;99.90
4615;DHT22;2320;51.362;6.946;2023-08-24T02:33:29;15.80;99.90
4615;DHT22;2320;51.362;6.946;2023-08-24T02:35:54;15.70;99.90
4615;DHT22;2320;51.362;6.946;2023-08-24T02:38:20;15.60;99.90
4615;DHT22;2320;51.362;6.946;2023-08-24T02:40:45;15.60;99.90
4615;DHT22;2320;51.362;6.946;2023-08-24T02:43:11;15.60;99.90
4615;DHT22;2320;51.362;6.946;2023-08-24T02:45:37;15.70;99.90
4615;DHT22;2320;51.362;6.946;2023-08-24T02:48:03;15.70;99.90
4615;DHT22;2320;51.362;6.946;2023-08-24T02:50:29;15.70;99.90
4615;DHT22;2320;51.362;6.946;2023-08-24T02:52:54;15.70;99.90
4615;DHT22;2320;51.362;6.946;2023-08-24T02:55:19;15.70;99.90
4615;DHT22;2320;51.362;6.946;2023-08-24T02:57:45;15.60;99.90
4615;DHT22;2320;51.362;6.946;2023-08-24T03:00:10;15.80;99.90
4615;DHT22;2320;51.362;6.946;2023-08-24T03:02:38;15.90;99.90
4615;DHT22;2320;51.362;6.946;2023-08-24T03:05:04;15.80;99.90
4615;DHT22;2320;51.362;6.946;2023-08-24T03:07:30;15.80;99.90
4615;DHT22;2320;51.362;6.946;2023-08-24T03:09:55;15.80;99.90
4615;DHT22;2320;51.362;6.946;2023-08-24T03:12:21;15.70;99.90
4615;DHT22;2320;51.362;6.946;2023-08-24T03:14:46;15.60;99.90
4615;DHT22;2320;51.362;6.946;2023-08-24T03:17:12;15.70;99.90
4615;DHT22;2320;51.362;6.946;2023-08-24T03:19:37;15.80;99.90
4615;DHT22;2320;51.362;6.946;2023-08-24T03:22:03;15.80;99.90
4615;DHT22;2320;51.362;6.946;2023-08-24T03:24:28;15.80;99.90
4615;DHT22;2320;51.362;6.946;2023-08-24T03:26:54;15.70;99.90
4615;DHT22;2320;51.362;6.946;2023-08-24T03:29:19;15.70;99.90
4615;DHT22;2320;51.362;6.946;2023-08-24T03:31:45;15.70;99.90
4615;DHT22;2320;51.362;6.946;2023-08-24T03:34:10;15.80;99.90
4615;DHT22;2320;51.362;6.946;2023-08-24T03:36:36;15.80;99.90
4615;DHT22;2320;51.362;6.946;2023-08-24T03:39:03;16.00;99.90
4615;DHT22;2320;51.362;6.946;2023-08-24T03:41:28;16.10;99.90
4615;DHT22;2320;51.362;6.946;2023-08-24T03:43:54;16.10;99.90
4615;DHT22;2320;51.362;6.946;2023-08-24T03:46:19;16.20;99.90
4615;DHT22;2320;51.362;6.946;2023-08-24T03:48:45;16.00;99.90
4615;DHT22;2320;51.362;6.946;2023-08-24T03:51:10;16.10;99.90
4615;DHT22;2320;51.362;6.946;2023-08-24T03:53:36;16.10;99.90
4615;DHT22;2320;51.362;6.946;2023-08-24T03:56:01;16.20;99.90
4615;DHT22;2320;51.362;6.946;2023-08-24T03:58:27;16.10;99.90
4615;DHT22;2320;51.362;6.946;2023-08-24T04:00:53;16.10;99.90
4615;DHT22;2320;51.362;6.946;2023-08-24T04:03:19;16.10;99.90
4615;DHT22;2320;51.362;6.946;2023-08-24T04:05:45;16.00;99.90
4615;DHT22;2320;51.362;6.946;2023-08-24T04:08:10;16.10;99.90
4615;DHT22;2320;51.362;6.946;2023-08-24T04:10:35;16.10;99.90
4615;DHT22;2320;51.362;6.946;2023-08-24T04:13:01;16.10;99.90
4615;DHT22;2320;51.362;6.946;2023-08-24T04:15:26;16.20;99.90
4615;DHT22;2320;51.362;6.946;2023-08-24T04:17:52;16.40;99.90
4615;DHT22;2320;51.362;6.946;2023-08-24T04:20:18;16.30;99.90
4615;DHT22;2320;51.362;6.946;2023-08-24T04:22:43;16.40;99.90
4615;DHT22;2320;51.362;6.946;2023-08-24T04:25:09;16.40;99.90
4615;DHT22;2320;51.362;6.946;2023-08-24T04:27:34;16.50;99.90
4615;DHT22;2320;51.362;6.946;2023-08-24T04:30:00;16.50;99.90
4615;DHT22;2320;51.362;6.946;2023-08-24T04:32:26;16.40;99.90
4615;DHT22;2320;51.362;6.946;2023-08-24T04:34:52;16.40;99.90
4615;DHT22;2320;51.362;6.946;2023-08-24T04:37:17;16.40;99.90
4615;DHT22;2320;51.362;6.946;2023-08-24T04:39:43;16.50;99.90
4615;DHT22;2320;51.362;6.946;2023-08-24T04:42:08;16.40;99.90
4615;DHT22;2320;51.362;6.946;2023-08-24T04:44:34;16.30;99.90
4615;DHT22;2320;51.362;6.946;2023-08-24T04:46:59;16.30;99.90
4615;DHT22;2320;51.362;6.946;2023-08-24T04:49:25;16.40;99.90
4615;DHT22;2320;51.362;6.946;2023-08-24T04:51:50;16.40;99.90
4615;DHT22;2320;51.362;6.946;2023-08-24T04:54:16;16.50;99.90
4615;DHT22;2320;51.362;6.946;2023-08-24T04:56:41;16.50;99.90
4615;DHT22;2320;51.362;6.946;2023-08-24T04:59:07;16.50;99.90
4615;DHT22;2320;51.362;6.946;2023-08-24T05:01:33;16.60;99.90
4615;DHT22;2320;51.362;6.946;2023-08-24T05:03:59;16.50;99.90
4615;DHT22;2320;51.362;6.946;2023-08-24T05:06:24;16.60;99.90
4615;DHT22;2320;51.362;6.946;2023-08-24T05:08:50;16.60;99.90
4615;DHT22;2320;51.362;6.946;2023-08-24T05:11:19;16.60;99.90
4615;DHT22;2320;51.362;6.946;2023-08-24T05:13:45;16.70;99.90
4615;DHT22;2320;51.362;6.946;2023-08-24T05:16:12;16.50;99.90
4615;DHT22;2320;51.362;6.946;2023-08-24T05:18:38;16.60;99.90
4615;DHT22;2320;51.362;6.946;2023-08-24T05:21:04;16.50;99.90
4615;DHT22;2320;51.362;6.946;2023-08-24T05:23:30;16.60;99.90
4615;DHT22;2320;51.362;6.946;2023-08-24T05:25:58;16.70;99.90
4615;DHT22;2320;51.362;6.946;2023-08-24T05:28:25;16.80;99.90
4615;DHT22;2320;51.362;6.946;2023-08-24T05:30:51;16.80;99.90
4615;DHT22;2320;51.362;6.946;2023-08-24T05:33:16;16.70;99.90
4615;DHT22;2320;51.362;6.946;2023-08-24T05:35:42;16.80;99.90
4615;DHT22;2320;51.362;6.946;2023-08-24T05:38:07;16.80;99.90
4615;DHT22;2320;51.362;6.946;2023-08-24T05:40:36;16.90;99.90
4615;DHT22;2320;51.362;6.946;2023-08-24T05:43:02;16.90;99.90
4615;DHT22;2320;51.362;6.946;2023-08-24T05:45:28;17.30;99.90
4615;DHT22;2320;51.362;6.946;2023-08-24T05:47:53;17.90;99.90
4615;DHT22;2320;51.362;6.946;2023-08-24T05:50:19;18.50;99.90
4615;DHT22;2320;51.362;6.946;2023-08-24T05:52:44;18.90;99.90
4615;DHT22;2320;51.362;6.946;2023-08-24T05:55:10;19.30;99.90
4615;DHT22;2320;51.362;6.946;2023-08-24T05:57:35;19.60;99.90
4615;DHT22;2320;51.362;6.946;2023-08-24T06:00:01;19.80;99.90
4615;DHT22;2320;51.362;6.946;2023-08-24T06:02:26;19.90;99.90
4615;DHT22;2320;51.362;6.946;2023-08-24T06:04:52;20.00;99.90
4615;DHT22;2320;51.362;6.946;2023-08-24T06:07:17;20.00;99.90
4615;DHT22;2320;51.362;6.946;2023-08-24T06:09:43;20.00;99.90
4615;DHT22;2320;51.362;6.946;2023-08-24T06:12:08;20.10;99.90
4615;DHT22;2320;51.362;6.946;2023-08-24T06:14:34;20.10;99.90
4615;DHT22;2320;51.362;6.946;2023-08-24T06:16:59;20.10;99.90
4615;DHT22;2320;51.362;6.946;2023-08-24T06:19:25;20.30;99.90
4615;DHT22;2320;51.362;6.946;2023-08-24T06:21:50;20.40;99.90
4615;DHT22;2320;51.362;6.946;2023-08-24T06:24:16;20.40;99.90
4615;DHT22;2320;51.362;6.946;2023-08-24T06:26:41;20.40;99.90
4615;DHT22;2320;51.362;6.946;2023-08-24T06:29:07;20.60;99.90
4615;DHT22;2320;51.362;6.946;2023-08-24T06:31:32;20.70;99.90
4615;DHT22;2320;51.362;6.946;2023-08-24T06:33:58;20.80;99.90
4615;DHT22;2320;51.362;6.946;2023-08-24T06:36:24;21.10;99.90
4615;DHT22;2320;51.362;6.946;2023-08-24T06:38:49;21.70;99.90
4615;DHT22;2320;51.362;6.946;2023-08-24T06:41:15;22.50;99.90
4615;DHT22;2320;51.362;6.946;2023-08-24T06:43:40;23.20;99.90
4615;DHT22;2320;51.362;6.946;2023-08-24T06:46:06;24.30;99.90
4615;DHT22;2320;51.362;6.946;2023-08-24T06:48:35;25.10;99.90
4615;DHT22;2320;51.362;6.946;2023-08-24T06:51:00;26.00;99.90
4615;DHT22;2320;51.362;6.946;2023-08-24T06:53:26;26.80;99.90
4615;DHT22;2320;51.362;6.946;2023-08-24T06:55:57;27.90;99.90
4615;DHT22;2320;51.362;6.946;2023-08-24T06:58:23;29.00;99.90
4615;DHT22;2320;51.362;6.946;2023-08-24T07:00:49;30.10;99.90
4615;DHT22;2320;51.362;6.946;2023-08-24T07:03:16;30.50;99.90
4615;DHT22;2320;51.362;6.946;2023-08-24T07:05:42;31.20;99.90
4615;DHT22;2320;51.362;6.946;2023-08-24T07:08:08;32.00;99.90
4615;DHT22;2320;51.362;6.946;2023-08-24T07:10:33;32.50;99.90
4615;DHT22;2320;51.362;6.946;2023-08-24T07:12:58;33.40;99.90
4615;DHT22;2320;51.362;6.946;2023-08-24T07:15:24;33.70;99.90
4615;DHT22;2320;51.362;6.946;2023-08-24T07:17:49;33.60;99.90
4615;DHT22;2320;51.362;6.946;2023-08-24T07:20:15;33.90;99.90
4615;DHT22;2320;51.362;6.946;2023-08-24T07:22:40;34.90;99.90
4615;DHT22;2320;51.362;6.946;2023-08-24T07:25:06;35.20;99.90
4615;DHT22;2320;51.362;6.946;2023-08-24T07:27:32;35.50;99.90
4615;DHT22;2320;51.362;6.946;2023-08-24T07:29:57;35.70;99.90
4615;DHT22;2320;51.362;6.946;2023-08-24T07:32:23;36.30;99.90
4615;DHT22;2320;51.362;6.946;2023-08-24T07:34:49;36.40;99.90
4615;DHT22;2320;51.362;6.946;2023-08-24T07:37:14;36.40;99.90
4615;DHT22;2320;51.362;6.946;2023-08-24T07:39:40;37.10;99.90
4615;DHT22;2320;51.362;6.946;2023-08-24T07:42:05;35.70;99.90
4615;DHT22;2320;51.362;6.946;2023-08-24T07:44:31;36.30;99.90
4615;DHT22;2320;51.362;6.946;2023-08-24T07:46:56;37.20;99.90
4615;DHT22;2320;51.362;6.946;2023-08-24T07:49:21;37.70;99.90
4615;DHT22;2320;51.362;6.946;2023-08-24T07:51:47;38.00;98.60
4615;DHT22;2320;51.362;6.946;2023-08-24T07:54:12;38.10;97.40
4615;DHT22;2320;51.362;6.946;2023-08-24T07:56:38;38.00;96.70
4615;DHT22;2320;51.362;6.946;2023-08-24T07:59:03;38.20;96.90
4615;DHT22;2320;51.362;6.946;2023-08-24T08:01:29;35.80;98.10
4615;DHT22;2320;51.362;6.946;2023-08-24T08:03:54;37.30;98.70
4615;DHT22;2320;51.362;6.946;2023-08-24T08:06:20;37.60;96.40
4615;DHT22;2320;51.362;6.946;2023-08-24T08:08:47;38.80;95.50
4615;DHT22;2320;51.362;6.946;2023-08-24T08:11:12;39.30;94.10
4615;DHT22;2320;51.362;6.946;2023-08-24T08:13:38;39.40;93.30
4615;DHT22;2320;51.362;6.946;2023-08-24T08:16:04;37.70;92.30
4615;DHT22;2320;51.362;6.946;2023-08-24T08:18:30;38.30;92.40
4615;DHT22;2320;51.362;6.946;2023-08-24T08:20:56;38.90;91.00
4615;DHT22;2320;51.362;6.946;2023-08-24T08:23:21;36.10;85.90
4615;DHT22;2320;51.362;6.946;2023-08-24T08:25:47;37.70;90.00
4615;DHT22;2320;51.362;6.946;2023-08-24T08:28:12;37.40;84.60
4615;DHT22;2320;51.362;6.946;2023-08-24T08:30:38;37.10;84.90
4615;DHT22;2320;51.362;6.946;2023-08-24T08:33:03;36.10;82.50
4615;DHT22;2320;51.362;6.946;2023-08-24T08:35:29;35.10;88.50
4615;DHT22;2320;51.362;6.946;2023-08-24T08:37:54;35.80;86.40
4615;DHT22;2320;51.362;6.946;2023-08-24T08:40:19;34.90;86.00
4615;DHT22;2320;51.362;6.946;2023-08-24T08:42:45;35.20;84.60
4615;DHT22;2320;51.362;6.946;2023-08-24T08:45:11;34.70;85.90
4615;DHT22;2320;51.362;6.946;2023-08-24T08:47:37;32.90;88.20
4615;DHT22;2320;51.362;6.946;2023-08-24T08:50:03;33.60;90.90
4615;DHT22;2320;51.362;6.946;2023-08-24T08:52:29;33.40;91.00
4615;DHT22;2320;51.362;6.946;2023-08-24T08:54:55;33.10;90.00
4615;DHT22;2320;51.362;6.946;2023-08-24T08:57:23;32.20;90.40
4615;DHT22;2320;51.362;6.946;2023-08-24T08:59:50;32.80;91.20
4615;DHT22;2320;51.362;6.946;2023-08-24T09:02:18;32.90;91.30
4615;DHT22;2320;51.362;6.946;2023-08-24T09:04:44;32.30;91.00
4615;DHT22;2320;51.362;6.946;2023-08-24T09:07:10;32.10;91.20
4615;DHT22;2320;51.362;6.946;2023-08-24T09:09:37;32.40;91.80
4615;DHT22;2320;51.362;6.946;2023-08-24T09:12:04;32.90;91.50
4615;DHT22;2320;51.362;6.946;2023-08-24T09:14:30;33.40;91.10
4615;DHT22;2320;51.362;6.946;2023-08-24T09:16:55;33.00;90.30
4615;DHT22;2320;51.362;6.946;2023-08-24T09:19:27;33.70;90.00
4615;DHT22;2320;51.362;6.946;2023-08-24T09:21:55;33.20;90.60
4615;DHT22;2320;51.362;6.946;2023-08-24T09:24:28;33.00;90.50
4615;DHT22;2320;51.362;6.946;2023-08-24T09:26:54;34.20;90.20
4615;DHT22;2320;51.362;6.946;2023-08-24T09:29:19;34.00;90.80
4615;DHT22;2320;51.362;6.946;2023-08-24T09:31:46;35.00;90.00
4615;DHT22;2320;51.362;6.946;2023-08-24T09:34:12;34.80;87.30
4615;DHT22;2320;51.362;6.946;2023-08-24T09:36:37;35.10;89.20
4615;DHT22;2320;51.362;6.946;2023-08-24T09:39:04;35.90;87.50
4615;DHT22;2320;51.362;6.946;2023-08-24T09:41:45;35.30;87.40
4615;DHT22;2320;51.362;6.946;2023-08-24T09:44:11;34.60;88.70
4615;DHT22;2320;51.362;6.946;2023-08-24T09:46:37;34.00;90.90
4615;DHT22;2320;51.362;6.946;2023-08-24T09:49:06;34.20;91.10
4615;DHT22;2320;51.362;6.946;2023-08-24T09:51:35;33.60;90.80
4615;DHT22;2320;51.362;6.946;2023-08-24T09:54:02;32.90;91.20
4615;DHT22;2320;51.362;6.946;2023-08-24T09:56:30;32.80;92.00
4615;DHT22;2320;51.362;6.946;2023-08-24T09:58:56;32.00;91.70
4615;DHT22;2320;51.362;6.946;2023-08-24T10:01:24;31.60;91.90
4615;DHT22;2320;51.362;6.946;2023-08-24T10:03:50;31.20;92.80
4615;DHT22;2320;51.362;6.946;2023-08-24T10:06:17;31.30;93.00
4615;DHT22;2320;51.362;6.946;2023-08-24T10:08:46;31.40;93.30
4615;DHT22;2320;51.362;6.946;2023-08-24T10:11:12;31.50;93.30
4615;DHT22;2320;51.362;6.946;2023-08-24T10:13:41;31.50;93.30
4615;DHT22;2320;51.362;6.946;2023-08-24T10:16:09;31.50;94.00
4615;DHT22;2320;51.362;6.946;2023-08-24T10:18:36;31.60;93.50
4615;DHT22;2320;51.362;6.946;2023-08-24T10:21:02;31.10;95.00
4615;DHT22;2320;51.362;6.946;2023-08-24T10:23:29;31.30;95.10
4615;DHT22;2320;51.362;6.946;2023-08-24T10:25:54;32.00;94.30
4615;DHT22;2320;51.362;6.946;2023-08-24T10:28:20;31.80;94.10
4615;DHT22;2320;51.362;6.946;2023-08-24T10:30:47;31.80;94.30
4615;DHT22;2320;51.362;6.946;2023-08-24T10:33:13;31.80;94.60
4615;DHT22;2320;51.362;6.946;2023-08-24T10:35:40;32.00;95.40
4615;DHT22;2320;51.362;6.946;2023-08-24T10:38:05;32.20;95.30
4615;DHT22;2320;51.362;6.946;2023-08-24T10:40:35;32.40;95.60
4615;DHT22;2320;51.362;6.946;2023-08-24T10:43:04;31.80;95.30
4615;DHT22;2320;51.362;6.946;2023-08-24T10:48:14;32.40;94.00
4615;DHT22;2320;51.362;6.946;2023-08-24T10:50:40;32.70;95.10
4615;DHT22;2320;51.362;6.946;2023-08-24T10:53:06;32.10;95.10
4615;DHT22;2320;51.362;6.946;2023-08-24T10:55:32;31.10;95.30
4615;DHT22;2320;51.362;6.946;2023-08-24T10:58:01;31.30;96.50
4615;DHT22;2320;51.362;6.946;2023-08-24T11:00:31;30.90;96.10
4615;DHT22;2320;51.362;6.946;2023-08-24T11:02:57;31.20;96.80
4615;DHT22;2320;51.362;6.946;2023-08-24T11:05:23;31.20;95.80
4615;DHT22;2320;51.362;6.946;2023-08-24T11:07:59;31.40;96.60
4615;DHT22;2320;51.362;6.946;2023-08-24T11:10:26;32.00;96.30
4615;DHT22;2320;51.362;6.946;2023-08-24T11:15:32;31.80;96.40
4615;DHT22;2320;51.362;6.946;2023-08-24T11:18:11;31.10;96.70
4615;DHT22;2320;51.362;6.946;2023-08-24T11:20:36;31.10;97.40
4615;DHT22;2320;51.362;6.946;2023-08-24T11:23:02;30.70;98.20
4615;DHT22;2320;51.362;6.946;2023-08-24T11:25:27;30.90;99.70
4615;DHT22;2320;51.362;6.946;2023-08-24T11:27:53;30.50;99.30
4615;DHT22;2320;51.362;6.946;2023-08-24T11:30:19;30.80;99.50
4615;DHT22;2320;51.362;6.946;2023-08-24T11:32:44;30.20;99.90
4615;DHT22;2320;51.362;6.946;2023-08-24T11:35:13;30.10;99.90
4615;DHT22;2320;51.362;6.946;2023-08-24T11:37:39;29.90;99.90
4615;DHT22;2320;51.362;6.946;2023-08-24T11:40:06;29.50;99.90
4615;DHT22;2320;51.362;6.946;2023-08-24T11:42:41;29.60;99.90
4615;DHT22;2320;51.362;6.946;2023-08-24T11:45:10;29.90;99.90
4615;DHT22;2320;51.362;6.946;2023-08-24T11:47:37;30.00;99.90
4615;DHT22;2320;51.362;6.946;2023-08-24T11:50:03;30.20;99.90
4615;DHT22;2320;51.362;6.946;2023-08-24T11:52:29;30.50;99.90
4615;DHT22;2320;51.362;6.946;2023-08-24T11:54:54;30.70;99.90
4615;DHT22;2320;51.362;6.946;2023-08-24T11:57:20;30.90;99.90
4615;DHT22;2320;51.362;6.946;2023-08-24T11:59:45;31.00;99.90
4615;DHT22;2320;51.362;6.946;2023-08-24T12:02:11;30.90;99.90
4615;DHT22;2320;51.362;6.946;2023-08-24T12:04:37;30.80;99.90
4615;DHT22;2320;51.362;6.946;2023-08-24T12:07:08;30.80;99.90
4615;DHT22;2320;51.362;6.946;2023-08-24T12:09:33;30.80;99.90
4615;DHT22;2320;51.362;6.946;2023-08-24T12:11:59;30.60;99.90
4615;DHT22;2320;51.362;6.946;2023-08-24T12:14:24;30.50;99.90
4615;DHT22;2320;51.362;6.946;2023-08-24T12:16:50;30.30;99.90
4615;DHT22;2320;51.362;6.946;2023-08-24T12:19:21;30.40;99.90
4615;DHT22;2320;51.362;6.946;2023-08-24T12:21:49;30.20;99.90
4615;DHT22;2320;51.362;6.946;2023-08-24T12:24:15;29.90;99.90
4615;DHT22;2320;51.362;6.946;2023-08-24T12:26:41;30.00;99.90
4615;DHT22;2320;51.362;6.946;2023-08-24T12:29:07;30.30;99.90
4615;DHT22;2320;51.362;6.946;2023-08-24T12:31:33;30.70;99.90
4615;DHT22;2320;51.362;6.946;2023-08-24T12:34:02;30.90;99.90
4615;DHT22;2320;51.362;6.946;2023-08-24T12:36:29;30.50;99.90
4615;DHT22;2320;51.362;6.946;2023-08-24T12:38:54;30.00;99.90
4615;DHT22;2320;51.362;6.946;2023-08-24T12:41:20;29.30;99.90
4615;DHT22;2320;51.362;6.946;2023-08-24T12:43:45;28.50;99.90
4615;DHT22;2320;51.362;6.946;2023-08-24T12:46:10;28.00;99.90
4615;DHT22;2320;51.362;6.946;2023-08-24T12:48:36;27.80;99.90
4615;DHT22;2320;51.362;6.946;2023-08-24T12:51:01;27.60;99.90
4615;DHT22;2320;51.362;6.946;2023-08-24T12:53:27;27.10;99.90
4615;DHT22;2320;51.362;6.946;2023-08-24T12:55:52;26.90;99.90
4615;DHT22;2320;51.362;6.946;2023-08-24T12:58:18;26.60;99.90
4615;DHT22;2320;51.362;6.946;2023-08-24T13:00:45;26.40;99.90
4615;DHT22;2320;51.362;6.946;2023-08-24T13:03:10;26.40;99.90
4615;DHT22;2320;51.362;6.946;2023-08-24T13:05:36;26.50;99.90
4615;DHT22;2320;51.362;6.946;2023-08-24T13:08:02;26.70;99.90
4615;DHT22;2320;51.362;6.946;2023-08-24T13:10:27;26.90;99.90
4615;DHT22;2320;51.362;6.946;2023-08-24T13:12:53;27.40;99.90
4615;DHT22;2320;51.362;6.946;2023-08-24T13:15:18;27.50;99.90
4615;DHT22;2320;51.362;6.946;2023-08-24T13:17:45;27.90;99.90
4615;DHT22;2320;51.362;6.946;2023-08-24T13:20:10;28.30;99.90
4615;DHT22;2320;51.362;6.946;2023-08-24T13:22:36;28.60;99.90
4615;DHT22;2320;51.362;6.946;2023-08-24T13:25:01;28.70;99.90
4615;DHT22;2320;51.362;6.946;2023-08-24T13:27:27;28.70;99.90
4615;DHT22;2320;51.362;6.946;2023-08-24T13:29:52;28.80;99.90
4615;DHT22;2320;51.362;6.946;2023-08-24T13:32:22;28.80;99.90
4615;DHT22;2320;51.362;6.946;2023-08-24T13:34:47;28.70;99.90
4615;DHT22;2320;51.362;6.946;2023-08-24T13:37:13;28.40;99.90
4615;DHT22;2320;51.362;6.946;2023-08-24T13:39:38;28.50;99.90
4615;DHT22;2320;51.362;6.946;2023-08-24T13:42:04;28.50;99.90
4615;DHT22;2320;51.362;6.946;2023-08-24T13:44:29;28.60;99.90
4615;DHT22;2320;51.362;6.946;2023-08-24T13:46:54;28.60;99.90
4615;DHT22;2320;51.362;6.946;2023-08-24T13:49:20;28.60;99.90
4615;DHT22;2320;51.362;6.946;2023-08-24T13:51:46;28.60;99.90
4615;DHT22;2320;51.362;6.946;2023-08-24T13:54:13;28.70;99.90
4615;DHT22;2320;51.362;6.946;2023-08-24T13:56:39;28.60;99.90
4615;DHT22;2320;51.362;6.946;2023-08-24T13:59:05;28.60;99.90
4615;DHT22;2320;51.362;6.946;2023-08-24T14:01:31;28.60;99.90
4615;DHT22;2320;51.362;6.946;2023-08-24T14:03:56;28.50;99.90
4615;DHT22;2320;51.362;6.946;2023-08-24T14:06:22;28.60;99.90
4615;DHT22;2320;51.362;6.946;2023-08-24T14:08:48;28.50;99.90
4615;DHT22;2320;51.362;6.946;2023-08-24T14:11:13;28.50;99.90
4615;DHT22;2320;51.362;6.946;2023-08-24T14:13:40;28.50;99.90
4615;DHT22;2320;51.362;6.946;2023-08-24T14:16:06;28.50;99.90
4615;DHT22;2320;51.362;6.946;2023-08-24T14:18:32;28.50;99.90
4615;DHT22;2320;51.362;6.946;2023-08-24T14:20:58;28.40;99.90
4615;DHT22;2320;51.362;6.946;2023-08-24T14:23:23;28.40;99.90
4615;DHT22;2320;51.362;6.946;2023-08-24T14:25:49;28.40;99.90
4615;DHT22;2320;51.362;6.946;2023-08-24T14:28:18;28.40;99.90
4615;DHT22;2320;51.362;6.946;2023-08-24T14:30:44;28.40;99.90
4615;DHT22;2320;51.362;6.946;2023-08-24T14:33:09;28.40;99.90
4615;DHT22;2320;51.362;6.946;2023-08-24T14:35:34;28.30;99.90
4615;DHT22;2320;51.362;6.946;2023-08-24T14:38:00;28.30;99.90
4615;DHT22;2320;51.362;6.946;2023-08-24T14:40:25;28.00;99.90
4615;DHT22;2320;51.362;6.946;2023-08-24T14:42:51;27.70;99.90
4615;DHT22;2320;51.362;6.946;2023-08-24T14:45:16;27.70;99.90
4615;DHT22;2320;51.362;6.946;2023-08-24T14:47:42;27.70;99.90
4615;DHT22;2320;51.362;6.946;2023-08-24T14:50:08;27.60;99.90
4615;DHT22;2320;51.362;6.946;2023-08-24T14:52:35;27.40;99.90
4615;DHT22;2320;51.362;6.946;2023-08-24T14:55:01;27.30;99.90
4615;DHT22;2320;51.362;6.946;2023-08-24T14:57:26;27.30;99.90
4615;DHT22;2320;51.362;6.946;2023-08-24T14:59:52;26.90;99.90
4615;DHT22;2320;51.362;6.946;2023-08-24T15:02:17;26.80;99.90
4615;DHT22;2320;51.362;6.946;2023-08-24T15:04:43;26.70;99.90
4615;DHT22;2320;51.362;6.946;2023-08-24T15:07:09;26.50;99.90
4615;DHT22;2320;51.362;6.946;2023-08-24T15:09:34;26.50;99.90
4615;DHT22;2320;51.362;6.946;2023-08-24T15:12:00;26.30;99.90
4615;DHT22;2320;51.362;6.946;2023-08-24T15:14:29;25.90;99.90
4615;DHT22;2320;51.362;6.946;2023-08-24T15:16:55;25.90;99.90
4615;DHT22;2320;51.362;6.946;2023-08-24T15:19:20;25.60;99.90
4615;DHT22;2320;51.362;6.946;2023-08-24T15:21:46;25.50;99.90
4615;DHT22;2320;51.362;6.946;2023-08-24T15:24:11;25.20;99.90
4615;DHT22;2320;51.362;6.946;2023-08-24T15:26:37;24.90;99.90
4615;DHT22;2320;51.362;6.946;2023-08-24T15:29:14;24.70;99.90
4615;DHT22;2320;51.362;6.946;2023-08-24T15:31:41;24.70;99.90
4615;DHT22;2320;51.362;6.946;2023-08-24T15:34:06;24.60;99.90
4615;DHT22;2320;51.362;6.946;2023-08-24T15:36:32;24.50;99.90
4615;DHT22;2320;51.362;6.946;2023-08-24T15:38:58;24.50;99.90
4615;DHT22;2320;51.362;6.946;2023-08-24T15:41:23;24.40;99.90
4615;DHT22;2320;51.362;6.946;2023-08-24T15:43:49;24.20;99.90
4615;DHT22;2320;51.362;6.946;2023-08-24T15:46:14;23.90;99.90
4615;DHT22;2320;51.362;6.946;2023-08-24T15:48:39;23.90;99.90
4615;DHT22;2320;51.362;6.946;2023-08-24T15:51:05;23.90;99.90
4615;DHT22;2320;51.362;6.946;2023-08-24T15:53:31;23.80;99.90
4615;DHT22;2320;51.362;6.946;2023-08-24T15:55:57;23.60;99.90
4615;DHT22;2320;51.362;6.946;2023-08-24T15:58:23;23.50;99.90
4615;DHT22;2320;51.362;6.946;2023-08-24T16:00:48;23.30;99.90
4615;DHT22;2320;51.362;6.946;2023-08-24T16:03:13;23.10;99.90
4615;DHT22;2320;51.362;6.946;2023-08-24T16:05:40;23.10;99.90